Airfield :
LOGIN :

Register | Disclaimer

   EN    FR    IT 

 










Legend :    VFR   Marginal VFR   IFR   Intensive IFR   Very Intensive IFR
Visi :
Ceiling :
>= 8 km
>= 3000ft
5 to 8 km
1000 to 3000 ft
1500m to 5 km
500 to 1000 ft
800 to 1500m
200 to 500 ft
< 800m
< 200 ft
Symbols :   Thunderstorms  Fog  Heavy snow  Heavy precipitations  Wind > 20 kt
SIGMETs :     Misc.  Thunderstorms  Icing  Turbulence  Mountain Waves  Volcanic Ashes






- Airport Elevation : 1260 ft
- IATA code : LDE


LFBT - Tarbes / Ossun

CURRENT METAR :
  • 271400Z AUTO 26018G30KT 9999 -RA BKN036 OVC043 11/07 Q1016 TEMPO 27025G40KT 4000 RA OVC005

EXPIRED METARs :
  • 271330Z AUTO 25018KT 9999 SCT038 BKN045 OVC052 11/07 Q1016 TEMPO 27025G40KT 4000 RA OVC005
  • 271300Z AUTO 26017KT 9999 BKN046 OVC054 11/07 Q1016 TEMPO 27025G40KT 4000 RA OVC005
  • 271230Z AUTO 26020G35KT 9999 -RA BKN050/// OVC060/// ///CB 11/05 Q1016 TEMPO 4000 RA OVC005
  • 271200Z AUTO 26025G39KT 9999 FEW052 OVC062 14/01 Q1015 TEMPO 4000 RA OVC005
  • 271130Z AUTO 26020G31KT 9999 FEW058 OVC068 15/01 Q1015
  • 271100Z AUTO 26025G38KT 230V290 9999 FEW042 BKN074 OVC092 15/00 Q1015 BECMG 4000 -RA OVC010

TAF TAF LFBT
Valid from the 27 at 12:00 until the 28 at 12:00 UTC


271100Z 2712/2812 27015KT 9999 BKN040
BECMG 2712/2713 -RA BKN012 OVC030
TEMPO 2712/2716 27025G40KT
PROB30
TEMPO 2713/2718 4000 RA OVC005
BECMG 2718/2720 27005KT 4000 -RA OVC005
BECMG 2805/2807 9999 NSW BKN010
BECMG 2808/2810 VRB03KT CAVOK



MET'MAP, your aeronautical weather chart ! - Copyright ORBIFLY December 2007 - Disclaimer

ORBIFLY MET'MAP TEAM :

Programming & Development : Alexandra Zaïnal
Concept & original design : Baudouin d'Aumeries
Assistance for programming : Marc-Olivier Méhu
Technical & hardware support : Manuel Goepfert

Contact : metmap@orbifly.com




SOURCES & CREDITS :

   NOAA